Time;durP1;ratioP1;P1;durP2;ratioP2;P2;SDS_P1;SDS_P2;PMS_P1;PMS_P2;Temp;Humidity;BMP_temperature;BMP_pressure;BME280_temperature;BME280_humidity;BME280_pressure;Samples;Min_cycle;Max_cycle;Signal;HPM_P1;HPM_P2
2022/08/06 00:00:35;;;;;;;0.83;0.50;;;;;26.40;101389.00;;;;2079675;28;20232;-53
2022/08/06 00:01:36;;;;;;;1.33;0.50;;;;;26.40;101395.00;;;;2079779;28;20476;-53
2022/08/06 00:02:36;;;;;;;0.80;0.50;;;;;26.40;101389.00;;;;2079952;28;20228;-53
2022/08/06 00:03:36;;;;;;;0.97;0.60;;;;;26.40;101394.00;;;;2079702;28;20236;-53
2022/08/06 00:04:37;;;;;;;0.93;0.67;;;;;26.40;101403.00;;;;2079652;28;20225;-53
2022/08/06 00:05:37;;;;;;;0.97;0.60;;;;;26.40;101400.00;;;;2086648;28;20213;-53
2022/08/06 00:06:37;;;;;;;0.90;0.53;;;;;26.40;101398.00;;;;2079777;28;20217;-53
2022/08/06 00:07:38;;;;;;;1.00;0.60;;;;;26.40;101397.00;;;;2078805;28;20228;-53
2022/08/06 00:08:38;;;;;;;1.87;0.60;;;;;26.40;101402.00;;;;2079543;28;20245;-53
2022/08/06 00:09:38;;;;;;;1.30;0.77;;;;;26.40;101396.00;;;;2079703;28;20228;-54
2022/08/06 00:10:39;;;;;;;1.40;0.77;;;;;26.40;101393.00;;;;2078796;28;20245;-53
2022/08/06 00:11:39;;;;;;;1.33;0.80;;;;;26.40;101402.00;;;;2083877;28;20262;-54
2022/08/06 00:12:40;;;;;;;0.80;0.47;;;;;26.40;101394.00;;;;2087936;28;20216;-52
2022/08/06 00:13:40;;;;;;;0.93;0.50;;;;;26.40;101378.00;;;;2087938;28;20315;-53
2022/08/06 00:14:40;;;;;;;0.73;0.50;;;;;26.40;101398.00;;;;2087719;28;20303;-54
2022/08/06 00:15:41;;;;;;;0.73;0.50;;;;;26.40;101403.00;;;;2087698;28;20225;-53
2022/08/06 00:16:41;;;;;;;1.10;0.60;;;;;26.40;101401.00;;;;2087852;28;20274;-54
2022/08/06 00:17:42;;;;;;;1.20;0.70;;;;;26.40;101405.00;;;;2086948;28;20217;-53
2022/08/06 00:18:42;;;;;;;0.80;0.60;;;;;26.40;101403.00;;;;2080318;28;20210;-53
2022/08/06 00:19:43;;;;;;;0.83;0.53;;;;;26.40;101405.00;;;;2083758;28;20692;-53
2022/08/06 00:20:43;;;;;;;0.83;0.50;;;;;26.40;101407.00;;;;2087710;28;20243;-53
2022/08/06 00:21:43;;;;;;;0.97;0.67;;;;;26.40;101414.00;;;;2087735;28;20217;-53
2022/08/06 00:22:44;;;;;;;1.30;0.60;;;;;26.40;101414.00;;;;2084260;28;20229;-53
2022/08/06 00:23:44;;;;;;;1.30;0.70;;;;;26.40;101239.00;;;;2079518;28;20222;-53
2022/08/06 00:24:44;;;;;;;1.10;0.50;;;;;26.40;101380.00;;;;2079265;28;20585;-58
2022/08/06 00:25:45;;;;;;;0.70;0.50;;;;;26.40;101415.00;;;;2076694;28;20304;-57
2022/08/06 00:26:45;;;;;;;1.07;0.60;;;;;26.40;101418.00;;;;2078760;28;20206;-56
2022/08/06 00:27:46;;;;;;;0.80;0.50;;;;;26.40;101413.00;;;;2078529;28;20256;-56
2022/08/06 00:28:46;;;;;;;1.00;0.60;;;;;26.40;101414.00;;;;2079530;28;20627;-55
2022/08/06 00:29:46;;;;;;;1.30;0.70;;;;;26.40;101419.00;;;;2079500;28;20218;-54
2022/08/06 00:30:47;;;;;;;1.33;0.50;;;;;26.40;101418.00;;;;2079556;28;20217;-53
2022/08/06 00:31:47;;;;;;;0.90;0.50;;;;;26.30;101415.00;;;;2079352;28;20209;-53
2022/08/06 00:32:48;;;;;;;0.90;0.50;;;;;26.40;101421.00;;;;2079477;28;20303;-53
2022/08/06 00:33:48;;;;;;;0.80;0.50;;;;;26.30;101423.00;;;;2079459;28;20228;-53
2022/08/06 00:34:48;;;;;;;1.00;0.70;;;;;26.40;101422.00;;;;2078725;28;20213;-54
2022/08/06 00:35:49;;;;;;;0.87;0.50;;;;;26.30;101429.00;;;;2078930;28;20221;-53
2022/08/06 00:36:49;;;;;;;1.00;0.60;;;;;26.40;101423.00;;;;2078739;28;20229;-53
2022/08/06 00:37:50;;;;;;;0.83;0.50;;;;;26.40;101415.00;;;;2078550;28;20268;-53
2022/08/06 00:38:50;;;;;;;0.70;0.47;;;;;26.40;101423.00;;;;2079565;28;20221;-52
2022/08/06 00:39:50;;;;;;;1.03;0.50;;;;;26.30;101422.00;;;;2079556;28;20270;-53
2022/08/06 00:40:51;;;;;;;1.77;0.80;;;;;26.30;101222.00;;;;2079340;28;20210;-54
2022/08/06 00:41:51;;;;;;;1.23;0.50;;;;;26.30;101423.00;;;;2077810;28;20217;-53
2022/08/06 00:42:52;;;;;;;0.90;0.70;;;;;26.30;101420.00;;;;2078145;28;20320;-53
2022/08/06 00:43:52;;;;;;;0.90;0.50;;;;;26.30;101425.00;;;;2079414;28;20240;-53
2022/08/06 00:44:52;;;;;;;0.80;0.50;;;;;26.30;101420.00;;;;2078992;28;20485;-53
2022/08/06 00:45:53;;;;;;;0.90;0.60;;;;;26.30;101420.00;;;;2079317;28;20226;-52
2022/08/06 00:46:53;;;;;;;1.20;0.60;;;;;26.30;101427.00;;;;2079330;28;20217;-52
2022/08/06 00:47:53;;;;;;;0.70;0.50;;;;;26.30;101422.00;;;;2078490;28;20213;-54
2022/08/06 00:48:54;;;;;;;1.30;0.70;;;;;26.30;101427.00;;;;2079208;28;20212;-53
2022/08/06 00:49:54;;;;;;;0.93;0.70;;;;;26.30;101428.00;;;;2079347;28;20214;-54
2022/08/06 00:50:54;;;;;;;0.80;0.53;;;;;26.30;101430.00;;;;2078742;28;20224;-53
2022/08/06 00:51:55;;;;;;;0.70;0.50;;;;;26.30;101425.00;;;;2078769;28;20213;-53
2022/08/06 00:52:55;;;;;;;1.03;0.70;;;;;26.30;101423.00;;;;2079513;28;20296;-53
2022/08/06 00:53:55;;;;;;;1.00;0.60;;;;;26.30;101419.00;;;;2079362;28;20240;-53
2022/08/06 00:54:56;;;;;;;0.80;0.50;;;;;26.30;101423.00;;;;2078612;28;20280;-53
2022/08/06 00:55:56;;;;;;;1.10;0.60;;;;;26.30;101419.00;;;;2079306;28;20209;-53
2022/08/06 00:56:56;;;;;;;1.40;0.63;;;;;26.30;101426.00;;;;2079258;28;20296;-53
2022/08/06 00:57:57;;;;;;;0.80;0.60;;;;;26.30;101424.00;;;;2078029;28;20224;-53
2022/08/06 00:58:57;;;;;;;0.77;0.53;;;;;26.30;101424.00;;;;2079068;28;20209;-53
2022/08/06 00:59:57;;;;;;;1.10;0.57;;;;;26.30;101431.00;;;;2079350;28;20304;-53
2022/08/06 01:00:58;;;;;;;1.00;0.80;;;;;26.30;101423.00;;;;2074919;28;20680;-53
2022/08/06 01:01:58;;;;;;;0.80;0.60;;;;;26.30;101424.00;;;;2079422;28;20591;-53
2022/08/06 01:02:59;;;;;;;0.80;0.60;;;;;26.30;101428.00;;;;2079384;28;20283;-53
2022/08/06 01:03:59;;;;;;;0.93;0.60;;;;;26.30;101431.00;;;;2079258;28;20222;-53
2022/08/06 01:04:59;;;;;;;1.67;0.67;;;;;26.30;101431.00;;;;2079193;28;20212;-53
2022/08/06 01:06:00;;;;;;;0.80;0.60;;;;;26.30;101439.00;;;;2079340;28;20306;-53
2022/08/06 01:07:00;;;;;;;0.90;0.60;;;;;26.30;101436.00;;;;2080060;28;20574;-54
2022/08/06 01:08:00;;;;;;;0.87;0.60;;;;;26.30;101435.00;;;;2085742;28;20570;-53
2022/08/06 01:09:01;;;;;;;1.30;0.70;;;;;26.30;101434.00;;;;2087347;28;20209;-53
2022/08/06 01:10:01;;;;;;;1.00;0.70;;;;;26.30;101431.00;;;;2080584;28;20217;-53
2022/08/06 01:11:02;;;;;;;1.00;0.70;;;;;26.30;101438.00;;;;2086540;28;20240;-53
2022/08/06 01:12:02;;;;;;;1.20;0.63;;;;;26.30;101427.00;;;;2078691;28;20213;-53
2022/08/06 01:13:02;;;;;;;0.83;0.60;;;;;26.30;101441.00;;;;2078471;28;20312;-53
2022/08/06 01:14:03;;;;;;;1.00;0.60;;;;;26.30;101431.00;;;;2078340;28;20808;-54
2022/08/06 01:15:04;;;;;;;0.90;0.60;;;;;26.30;101444.00;;;;2078300;28;20241;-53
2022/08/06 01:16:12;;;;;;;0.93;0.67;;;;;26.30;101435.00;;;;2080355;28;20210;-53
2022/08/06 01:17:23;;;;;;;1.00;0.63;;;;;26.30;101432.00;;;;2085770;28;20463;-52
2022/08/06 01:18:27;;;;;;;1.10;0.70;;;;;26.30;101436.00;;;;2085375;28;20493;-54
2022/08/06 01:19:50;;;;;;;1.13;0.60;;;;;26.30;101429.00;;;;2085217;28;21003;-53
2022/08/06 01:21:09;;;;;;;1.00;0.73;;;;;26.30;101312.00;;;;2078895;28;20485;-53
2022/08/06 01:22:09;;;;;;;1.30;0.60;;;;;26.30;101437.00;;;;2079234;28;20448;-52
2022/08/06 01:23:12;;;;;;;1.80;0.70;;;;;26.30;101439.00;;;;2081786;28;20503;-53
2022/08/06 01:24:21;;;;;;;1.00;0.67;;;;;26.30;101444.00;;;;2077489;28;20237;-53
2022/08/06 01:25:37;;;;;;;1.03;0.57;;;;;26.30;101433.00;;;;2077572;28;20423;-53
2022/08/06 01:27:12;;;;;;;0.90;0.70;;;;;26.30;101450.00;;;;2084898;28;20455;-53
2022/08/06 01:28:24;;;;;;;1.50;0.60;;;;;26.30;101443.00;;;;2085521;28;20757;-53
2022/08/06 01:29:27;;;;;;;0.70;0.40;;;;;26.30;101406.00;;;;2077436;28;20476;-54
2022/08/06 01:30:31;;;;;;;1.10;0.60;;;;;26.30;101437.00;;;;2078549;28;20639;-53
2022/08/06 01:31:43;;;;;;;1.97;0.63;;;;;26.30;101438.00;;;;2078668;28;21090;-53
2022/08/06 01:33:08;;;;;;;1.40;0.60;;;;;26.30;101445.00;;;;2086154;28;20459;-53
2022/08/06 01:34:34;;;;;;;1.07;0.70;;;;;26.30;101444.00;;;;2083424;28;20550;-53
2022/08/06 01:35:37;;;;;;;1.17;0.70;;;;;26.30;101444.00;;;;2078320;28;20452;-53
2022/08/06 01:36:40;;;;;;;1.00;0.70;;;;;26.30;101450.00;;;;2087383;28;20451;-53
2022/08/06 01:37:58;;;;;;;1.67;0.83;;;;;26.30;101437.00;;;;2085480;28;20544;-53
2022/08/06 01:38:59;;;;;;;1.00;0.73;;;;;26.30;101443.00;;;;2078053;28;20527;-53
2022/08/06 01:40:01;;;;;;;1.23;0.70;;;;;26.30;101453.00;;;;2053963;28;20466;-53
2022/08/06 01:41:04;;;;;;;1.10;0.80;;;;;26.30;101444.00;;;;2055906;28;20238;-53
2022/08/06 01:42:05;;;;;;;1.13;0.80;;;;;26.20;101403.00;;;;2061876;28;20457;-53
2022/08/06 01:43:07;;;;;;;1.00;0.73;;;;;26.20;101446.00;;;;2059313;28;20458;-53
2022/08/06 01:44:13;;;;;;;1.47;0.80;;;;;26.30;101451.00;;;;2070241;28;21289;-53
2022/08/06 01:45:15;;;;;;;0.87;0.70;;;;;26.20;101447.00;;;;2070908;28;20515;-53
2022/08/06 01:46:15;;;;;;;1.30;0.63;;;;;26.20;101455.00;;;;2083012;28;20554;-53
2022/08/06 01:47:17;;;;;;;0.80;0.60;;;;;26.30;101448.00;;;;2077405;28;20453;-53
2022/08/06 01:48:19;;;;;;;1.70;0.70;;;;;26.20;101452.00;;;;2077847;28;20221;-53
2022/08/06 01:49:22;;;;;;;0.90;0.60;;;;;26.20;101453.00;;;;2070764;28;20457;-53
2022/08/06 01:50:27;;;;;;;0.83;0.60;;;;;26.30;101442.00;;;;2070003;28;20487;-52
2022/08/06 01:51:27;;;;;;;0.70;0.60;;;;;26.20;101454.00;;;;2061140;28;20875;-56
2022/08/06 01:52:38;;;;;;;0.87;0.60;;;;;26.30;101441.00;;;;2061346;28;20564;-56
2022/08/06 01:53:38;;;;;;;0.93;0.60;;;;;26.20;101446.00;;;;2072456;28;20210;-53
2022/08/06 01:54:40;;;;;;;1.07;0.70;;;;;26.30;101456.00;;;;2067730;28;20453;-53
2022/08/06 01:55:42;;;;;;;0.97;0.63;;;;;26.20;101450.00;;;;2061803;28;20242;-53
2022/08/06 01:56:43;;;;;;;1.07;0.60;;;;;26.20;101456.00;;;;2069922;28;20540;-53
2022/08/06 01:57:48;;;;;;;1.53;0.60;;;;;26.20;101453.00;;;;2066546;28;20539;-53
2022/08/06 01:58:49;;;;;;;1.37;0.80;;;;;26.20;101455.00;;;;2070639;28;20471;-53
2022/08/06 01:59:51;;;;;;;1.00;0.70;;;;;26.20;101460.00;;;;2061690;28;20528;-53
2022/08/06 02:00:52;;;;;;;1.10;0.43;;;;;26.20;101462.00;;;;2063006;28;20237;-53
2022/08/06 02:01:54;;;;;;;1.00;0.80;;;;;26.20;101465.00;;;;2076841;28;20995;-53
2022/08/06 02:02:54;;;;;;;1.30;0.73;;;;;26.30;101435.00;;;;2071968;28;20674;-53
2022/08/06 02:03:55;;;;;;;1.00;0.60;;;;;26.20;101463.00;;;;2074969;28;20464;-53
2022/08/06 02:04:55;;;;;;;1.67;0.70;;;;;26.20;101461.00;;;;2069831;28;20276;-53
2022/08/06 02:05:56;;;;;;;1.10;0.73;;;;;26.20;101470.00;;;;2077780;28;20267;-53
2022/08/06 02:06:57;;;;;;;1.07;0.63;;;;;26.20;101420.00;;;;2070068;28;20823;-53
2022/08/06 02:07:57;;;;;;;1.30;0.60;;;;;26.20;101470.00;;;;2061622;28;20210;-53
2022/08/06 02:09:05;;;;;;;1.43;0.80;;;;;26.20;101421.00;;;;2069156;28;20222;-53
2022/08/06 02:10:06;;;;;;;1.00;0.67;;;;;26.20;101460.00;;;;2082914;28;20878;-54
2022/08/06 02:11:07;;;;;;;0.80;0.67;;;;;26.20;101465.00;;;;2086018;28;20513;-53
2022/08/06 02:12:10;;;;;;;1.43;0.63;;;;;26.20;101437.00;;;;2078333;28;20225;-53
2022/08/06 02:13:11;;;;;;;0.90;0.73;;;;;26.20;101466.00;;;;2086236;28;20498;-53
2022/08/06 02:14:12;;;;;;;1.40;0.80;;;;;26.20;101494.00;;;;2084311;28;20505;-53
2022/08/06 02:15:19;;;;;;;1.47;0.80;;;;;26.20;101460.00;;;;2070030;28;20206;-53
2022/08/06 02:16:19;;;;;;;0.90;0.60;;;;;26.20;101465.00;;;;2074307;28;20452;-53
2022/08/06 02:17:21;;;;;;;1.53;0.83;;;;;26.20;101460.00;;;;2069111;28;20450;-52
2022/08/06 02:18:21;;;;;;;1.70;0.90;;;;;26.20;101470.00;;;;2069702;28;20237;-53
2022/08/06 02:19:21;;;;;;;1.20;0.70;;;;;26.20;101467.00;;;;2077353;28;21063;-53
2022/08/06 02:20:25;;;;;;;1.40;0.50;;;;;26.20;101458.00;;;;2066159;28;20625;-53
2022/08/06 02:21:25;;;;;;;1.00;0.50;;;;;26.20;101477.00;;;;2070167;28;20218;-53
2022/08/06 02:22:27;;;;;;;0.90;0.70;;;;;26.20;101475.00;;;;2070029;28;20994;-53
2022/08/06 02:23:28;;;;;;;1.03;0.60;;;;;26.20;101473.00;;;;2080705;28;20217;-54
2022/08/06 02:24:28;;;;;;;1.20;0.90;;;;;26.20;101474.00;;;;2077897;28;20456;-54
2022/08/06 02:25:29;;;;;;;1.10;0.67;;;;;26.20;101457.00;;;;2077777;28;20229;-53
2022/08/06 02:26:29;;;;;;;1.17;0.70;;;;;26.20;101456.00;;;;2061659;28;20900;-53
2022/08/06 02:27:30;;;;;;;1.27;0.60;;;;;26.20;101471.00;;;;2068775;28;20217;-53
2022/08/06 02:28:31;;;;;;;1.00;0.60;;;;;26.20;101431.00;;;;2074582;28;20683;-54
2022/08/06 02:29:31;;;;;;;1.07;0.60;;;;;26.20;101480.00;;;;2072172;28;20302;-53
2022/08/06 02:30:34;;;;;;;1.30;0.80;;;;;26.20;101475.00;;;;2076370;28;20566;-54
2022/08/06 02:31:34;;;;;;;0.90;0.70;;;;;26.20;101439.00;;;;2077707;28;20221;-53
2022/08/06 02:32:34;;;;;;;1.03;0.70;;;;;26.20;101460.00;;;;2069927;28;20461;-54
2022/08/06 02:33:35;;;;;;;1.10;0.70;;;;;26.20;101465.00;;;;2078011;28;20289;-53
2022/08/06 02:34:35;;;;;;;1.17;0.70;;;;;26.20;101480.00;;;;2077965;28;20205;-53
2022/08/06 02:35:54;;;;;;;0.90;0.70;;;;;26.20;101442.00;;;;2077887;28;20221;-53
2022/08/06 02:37:10;;;;;;;1.33;0.80;;;;;26.20;101471.00;;;;2081471;28;20278;-53
2022/08/06 02:38:20;;;;;;;1.03;0.80;;;;;26.20;101506.00;;;;2070413;28;20547;-53
2022/08/06 02:39:41;;;;;;;1.13;0.60;;;;;26.20;101479.00;;;;2072231;28;20469;-53
2022/08/06 02:40:46;;;;;;;1.10;0.70;;;;;26.20;101476.00;;;;2085702;28;20481;-53
2022/08/06 02:42:02;;;;;;;1.00;0.67;;;;;26.20;101480.00;;;;2086148;28;20991;-53
2022/08/06 02:43:10;;;;;;;0.70;0.50;;;;;26.20;101475.00;;;;2077865;28;20483;-53
2022/08/06 02:44:16;;;;;;;0.80;0.60;;;;;26.20;101464.00;;;;2079924;28;20967;-54
2022/08/06 02:45:23;;;;;;;1.10;0.70;;;;;26.20;101487.00;;;;2086590;28;20509;-53
2022/08/06 02:46:26;;;;;;;1.23;0.77;;;;;26.20;101473.00;;;;2087707;28;20629;-53
2022/08/06 02:47:30;;;;;;;1.70;0.87;;;;;26.20;101481.00;;;;2086850;28;20455;-53
2022/08/06 02:48:38;;;;;;;1.30;0.77;;;;;26.20;101475.00;;;;2088281;28;20458;-52
2022/08/06 02:49:41;;;;;;;0.80;0.57;;;;;26.20;101450.00;;;;2087046;28;20455;-53
2022/08/06 02:50:43;;;;;;;1.00;0.60;;;;;26.20;101480.00;;;;2087667;28;20553;-54
2022/08/06 02:52:12;;;;;;;1.10;0.70;;;;;26.20;101449.00;;;;2087535;28;20517;-53
2022/08/06 02:53:17;;;;;;;1.00;0.60;;;;;26.20;101476.00;;;;2076162;28;20869;-53
2022/08/06 02:54:22;;;;;;;1.10;0.60;;;;;26.20;101483.00;;;;2079892;28;20482;-53
2022/08/06 02:55:25;;;;;;;1.60;0.73;;;;;26.20;101483.00;;;;2087652;28;20566;-53
2022/08/06 02:56:25;;;;;;;0.90;0.70;;;;;26.10;101484.00;;;;2087886;28;20493;-52
2022/08/06 02:57:32;;;;;;;1.20;0.60;;;;;26.10;101481.00;;;;2086636;28;20488;-53
2022/08/06 02:58:37;;;;;;;1.67;0.87;;;;;26.20;101492.00;;;;2087481;28;20660;-53
2022/08/06 02:59:42;;;;;;;1.27;0.60;;;;;26.10;101484.00;;;;2086759;28;20457;-55
2022/08/06 03:00:44;;;;;;;0.90;0.70;;;;;26.10;101488.00;;;;2086823;28;20995;-53
2022/08/06 03:01:50;;;;;;;1.37;0.63;;;;;26.20;101476.00;;;;2071917;28;21273;-53
2022/08/06 03:03:00;;;;;;;1.53;0.70;;;;;26.10;101494.00;;;;2071806;28;20469;-52
2022/08/06 03:04:00;;;;;;;0.90;0.57;;;;;26.10;101482.00;;;;2065510;28;20516;-54
2022/08/06 03:05:01;;;;;;;1.43;0.70;;;;;26.10;101459.00;;;;2071536;28;21016;-53
2022/08/06 03:06:03;;;;;;;1.10;0.80;;;;;26.10;101490.00;;;;2079189;28;20221;-53
2022/08/06 03:07:05;;;;;;;0.90;0.63;;;;;26.10;101486.00;;;;2071284;28;20472;-53
2022/08/06 03:08:06;;;;;;;1.30;0.70;;;;;26.20;101483.00;;;;2070776;28;20983;-53
2022/08/06 03:09:06;;;;;;;0.80;0.50;;;;;26.10;101488.00;;;;2071198;28;20457;-53
2022/08/06 03:10:08;;;;;;;1.10;0.60;;;;;26.10;101487.00;;;;2070993;28;20232;-53
2022/08/06 03:11:09;;;;;;;0.70;0.60;;;;;26.10;101494.00;;;;2071194;28;20218;-53
2022/08/06 03:12:09;;;;;;;1.00;0.70;;;;;26.10;101491.00;;;;2070752;28;20453;-53
2022/08/06 03:13:09;;;;;;;1.30;0.70;;;;;26.10;101494.00;;;;2076142;28;20980;-53
2022/08/06 03:14:10;;;;;;;0.80;0.60;;;;;26.10;101495.00;;;;2078111;28;20228;-54
2022/08/06 03:15:10;;;;;;;1.03;0.70;;;;;26.10;101468.00;;;;2079138;28;20245;-54
2022/08/06 03:16:10;;;;;;;1.03;0.60;;;;;26.10;101489.00;;;;2079307;28;20276;-53
2022/08/06 03:17:11;;;;;;;0.83;0.60;;;;;26.10;101498.00;;;;2080908;28;20209;-53
2022/08/06 03:18:12;;;;;;;1.40;0.80;;;;;26.10;101490.00;;;;2086386;28;20229;-53
2022/08/06 03:19:12;;;;;;;0.93;0.53;;;;;26.10;101498.00;;;;2087255;28;20463;-53
2022/08/06 03:20:14;;;;;;;1.00;0.60;;;;;26.10;101495.00;;;;2087287;28;20229;-53
2022/08/06 03:21:15;;;;;;;1.10;0.80;;;;;26.10;101494.00;;;;2079433;28;20305;-54
2022/08/06 03:22:16;;;;;;;1.40;0.83;;;;;26.10;101497.00;;;;2079207;28;20821;-53
2022/08/06 03:23:16;;;;;;;1.10;0.77;;;;;26.10;101504.00;;;;2079410;28;20221;-53
2022/08/06 03:24:17;;;;;;;0.80;0.60;;;;;26.10;101493.00;;;;2079041;28;20452;-53
2022/08/06 03:25:17;;;;;;;1.00;0.70;;;;;26.10;101496.00;;;;2078941;28;20220;-53
2022/08/06 03:26:17;;;;;;;1.00;0.60;;;;;25.80;101502.00;;;;2087451;28;20241;-53
2022/08/06 03:27:18;;;;;;;0.90;0.60;;;;;26.10;101511.00;;;;2086696;28;20296;-53
2022/08/06 03:28:18;;;;;;;1.20;0.80;;;;;26.10;101504.00;;;;2086698;28;20213;-53
2022/08/06 03:29:18;;;;;;;1.37;0.87;;;;;26.10;101506.00;;;;2079216;28;20550;-53
2022/08/06 03:30:19;;;;;;;0.90;0.70;;;;;26.10;101509.00;;;;2079113;28;20658;-53
2022/08/06 03:31:19;;;;;;;1.10;0.67;;;;;26.10;101498.00;;;;2079186;28;20229;-53
2022/08/06 03:32:19;;;;;;;0.90;0.60;;;;;26.10;101513.00;;;;2070889;28;20221;-53
2022/08/06 03:33:20;;;;;;;0.80;0.60;;;;;26.10;101509.00;;;;2070816;28;20210;-53
2022/08/06 03:34:20;;;;;;;0.90;0.70;;;;;26.10;101514.00;;;;2070528;28;20245;-53
2022/08/06 03:35:20;;;;;;;1.33;0.90;;;;;26.10;101514.00;;;;2070691;28;20214;-53
2022/08/06 03:36:21;;;;;;;1.20;0.87;;;;;26.10;101511.00;;;;2070333;28;20225;-53
2022/08/06 03:37:21;;;;;;;0.97;0.70;;;;;26.10;101510.00;;;;2069886;28;20641;-53
2022/08/06 03:38:22;;;;;;;1.17;0.80;;;;;26.10;101512.00;;;;2069030;28;20949;-53
2022/08/06 03:39:23;;;;;;;0.90;0.60;;;;;26.10;101509.00;;;;2079091;28;20428;-53
2022/08/06 03:40:24;;;;;;;1.50;0.80;;;;;26.10;101509.00;;;;2079000;28;20547;-53
2022/08/06 03:41:24;;;;;;;0.70;0.60;;;;;26.10;101518.00;;;;2083391;28;20845;-53
2022/08/06 03:42:25;;;;;;;1.00;0.60;;;;;26.10;101493.00;;;;2087844;28;20209;-53
2022/08/06 03:43:25;;;;;;;1.60;0.80;;;;;26.10;101494.00;;;;2087306;28;20216;-53
2022/08/06 03:44:25;;;;;;;1.10;0.63;;;;;26.10;101501.00;;;;2087024;28;20456;-53
2022/08/06 03:45:26;;;;;;;1.17;0.60;;;;;26.10;101522.00;;;;2086979;28;20224;-53
2022/08/06 03:46:44;;;;;;;1.10;0.60;;;;;26.10;101518.00;;;;2079107;28;20209;-53
2022/08/06 03:47:47;;;;;;;0.90;0.50;;;;;26.10;101518.00;;;;2080165;28;20213;-53
2022/08/06 03:48:48;;;;;;;1.47;0.70;;;;;26.10;101522.00;;;;2079467;28;20448;-53
2022/08/06 03:49:52;;;;;;;0.97;0.53;;;;;26.10;101524.00;;;;2078680;28;20823;-53
2022/08/06 03:50:53;;;;;;;0.90;0.60;;;;;26.10;101494.00;;;;2087373;28;20266;-53
2022/08/06 03:51:53;;;;;;;1.20;0.83;;;;;26.10;101521.00;;;;2085400;28;21059;-53
2022/08/06 03:52:59;;;;;;;1.23;0.80;;;;;26.10;101521.00;;;;2069913;28;20276;-53
2022/08/06 03:54:00;;;;;;;0.80;0.60;;;;;26.10;101529.00;;;;2071531;28;20345;-53
2022/08/06 03:55:02;;;;;;;1.07;0.70;;;;;26.10;101527.00;;;;2076105;28;20846;-53
2022/08/06 03:56:02;;;;;;;0.90;0.70;;;;;26.10;101490.00;;;;2072403;28;20412;-53
2022/08/06 03:57:06;;;;;;;1.10;0.70;;;;;26.10;101491.00;;;;2078012;28;20463;-53
2022/08/06 03:58:09;;;;;;;1.03;0.50;;;;;26.10;101522.00;;;;2077883;28;20240;-53
2022/08/06 03:59:09;;;;;;;1.00;0.57;;;;;26.10;101533.00;;;;2071565;28;20460;-52
2022/08/06 04:00:10;;;;;;;1.13;0.60;;;;;26.10;101489.00;;;;2070566;28;20982;-54
2022/08/06 04:01:12;;;;;;;1.20;0.60;;;;;26.10;101522.00;;;;2078895;28;20666;-53
2022/08/06 04:02:13;;;;;;;0.90;0.60;;;;;26.10;101494.00;;;;2079262;28;20484;-53
2022/08/06 04:03:13;;;;;;;1.40;0.80;;;;;26.00;101528.00;;;;2086878;28;20534;-53
2022/08/06 04:04:14;;;;;;;1.10;0.77;;;;;26.10;101525.00;;;;2086725;28;20236;-53
2022/08/06 04:05:25;;;;;;;0.80;0.53;;;;;26.10;101530.00;;;;2078812;28;20691;-53
2022/08/06 04:06:26;;;;;;;1.53;0.80;;;;;26.10;101499.00;;;;2086942;28;20220;-53
2022/08/06 04:07:26;;;;;;;1.30;0.80;;;;;26.10;101526.00;;;;2079618;28;20983;-53
2022/08/06 04:08:27;;;;;;;1.80;0.83;;;;;26.10;101534.00;;;;2069318;28;20608;-53
2022/08/06 04:09:27;;;;;;;1.00;0.60;;;;;26.10;101490.00;;;;2078967;28;20216;-53
2022/08/06 04:10:29;;;;;;;0.70;0.40;;;;;26.00;101524.00;;;;2078715;28;20217;-53
2022/08/06 04:11:29;;;;;;;1.17;0.80;;;;;26.00;101532.00;;;;2078840;28;20711;-53
2022/08/06 04:12:29;;;;;;;0.97;0.70;;;;;26.00;101532.00;;;;2070688;28;20449;-53
2022/08/06 04:13:30;;;;;;;0.83;0.63;;;;;26.00;101531.00;;;;2078916;28;20275;-53
2022/08/06 04:14:30;;;;;;;1.10;0.77;;;;;26.00;101532.00;;;;2079435;28;20702;-53
2022/08/06 04:15:30;;;;;;;1.13;0.67;;;;;26.00;101539.00;;;;2078755;28;20297;-53
2022/08/06 04:16:31;;;;;;;1.00;0.70;;;;;26.00;101541.00;;;;2078861;28;20218;-53
2022/08/06 04:17:31;;;;;;;1.07;0.80;;;;;26.00;101543.00;;;;2077931;28;20210;-53
2022/08/06 04:18:36;;;;;;;1.20;0.77;;;;;26.00;101541.00;;;;2076548;28;20471;-53
2022/08/06 04:19:36;;;;;;;1.10;0.60;;;;;26.00;101501.00;;;;2078833;28;20236;-53
2022/08/06 04:20:38;;;;;;;0.83;0.60;;;;;26.00;101536.00;;;;2067357;28;20504;-53
2022/08/06 04:21:38;;;;;;;1.10;0.70;;;;;26.00;101543.00;;;;2065058;28;22572;-53
2022/08/06 04:22:39;;;;;;;1.17;0.77;;;;;26.00;101543.00;;;;2070765;28;20511;-53
2022/08/06 04:23:39;;;;;;;0.90;0.60;;;;;26.00;101539.00;;;;2070129;28;20230;-53
2022/08/06 04:24:39;;;;;;;0.80;0.60;;;;;26.00;101553.00;;;;2070582;28;20221;-54
2022/08/06 04:26:01;;;;;;;1.47;0.70;;;;;26.00;101551.00;;;;2069015;28;20225;-53
2022/08/06 04:27:03;;;;;;;1.20;0.60;;;;;25.90;101546.00;;;;2073196;28;20304;-53
2022/08/06 04:28:05;;;;;;;0.80;0.60;;;;;26.00;101544.00;;;;2069665;28;20473;-53
2022/08/06 04:29:05;;;;;;;0.85;0.73;;;;;26.00;101550.00;;;;2078647;28;20556;-53
2022/08/06 04:30:06;;;;;;;1.00;0.70;;;;;26.00;101541.00;;;;2078676;28;20217;-53
2022/08/06 04:31:07;;;;;;;0.83;0.67;;;;;26.00;101537.00;;;;2070465;28;20210;-53
2022/08/06 04:32:07;;;;;;;1.10;0.70;;;;;26.00;101549.00;;;;2078694;28;20959;-53
2022/08/06 04:33:10;;;;;;;1.23;0.70;;;;;26.00;101549.00;;;;2078614;28;20353;-53
2022/08/06 04:34:11;;;;;;;0.70;0.60;;;;;26.00;101554.00;;;;2078338;28;20217;-53
2022/08/06 04:35:11;;;;;;;1.87;0.80;;;;;26.00;101518.00;;;;2078721;28;20453;-53
2022/08/06 04:36:12;;;;;;;1.53;0.80;;;;;26.00;101550.00;;;;2078630;28;20225;-53
2022/08/06 04:37:12;;;;;;;1.40;0.80;;;;;26.00;101555.00;;;;2079302;28;20224;-53
2022/08/06 04:38:12;;;;;;;0.90;0.60;;;;;26.00;101552.00;;;;2072624;28;20218;-53
2022/08/06 04:39:13;;;;;;;1.30;0.77;;;;;26.00;101548.00;;;;2076590;28;20669;-53
2022/08/06 04:40:13;;;;;;;0.80;0.60;;;;;26.00;101545.00;;;;2070384;28;20260;-53
2022/08/06 04:41:13;;;;;;;0.77;0.63;;;;;26.10;101559.00;;;;2062157;28;20596;-53
2022/08/06 04:42:14;;;;;;;1.00;0.67;;;;;26.00;101550.00;;;;2070413;28;20226;-53
2022/08/06 04:43:14;;;;;;;1.00;0.80;;;;;26.00;101554.00;;;;2078554;28;20335;-53
2022/08/06 04:44:14;;;;;;;1.77;0.60;;;;;26.00;101546.00;;;;2071777;28;20277;-53
2022/08/06 04:45:15;;;;;;;1.60;0.70;;;;;26.00;101536.00;;;;2077554;28;20210;-53
2022/08/06 04:46:15;;;;;;;1.00;0.50;;;;;26.00;101559.00;;;;2070424;28;20218;-53
2022/08/06 04:47:15;;;;;;;1.00;0.70;;;;;26.00;101561.00;;;;2069996;28;20280;-53
2022/08/06 04:48:16;;;;;;;1.30;0.63;;;;;26.00;101568.00;;;;2077924;28;20271;-53
2022/08/06 04:49:16;;;;;;;1.23;0.87;;;;;26.00;101552.00;;;;2075063;28;20218;-53
2022/08/06 04:50:17;;;;;;;0.80;0.50;;;;;26.00;101553.00;;;;2070349;28;20301;-53
2022/08/06 04:51:17;;;;;;;1.30;0.80;;;;;26.00;101530.00;;;;2080137;28;20725;-54
2022/08/06 04:52:21;;;;;;;1.00;0.70;;;;;26.00;101522.00;;;;2085294;28;20236;-54
2022/08/06 04:53:22;;;;;;;0.90;0.53;;;;;26.00;101554.00;;;;2075185;28;20623;-53
2022/08/06 04:54:22;;;;;;;1.53;0.70;;;;;26.00;101559.00;;;;2078557;28;20631;-53
2022/08/06 04:55:23;;;;;;;1.13;0.80;;;;;26.00;101560.00;;;;2078551;28;20298;-52
2022/08/06 04:56:23;;;;;;;0.80;0.60;;;;;26.10;101573.00;;;;2078610;28;20225;-53
2022/08/06 04:57:23;;;;;;;1.20;0.70;;;;;26.00;101570.00;;;;2085440;28;20215;-53
2022/08/06 04:58:24;;;;;;;1.37;0.70;;;;;25.40;101554.00;;;;2079134;28;20214;-59
2022/08/06 04:59:24;;;;;;;0.90;0.50;;;;;26.00;101566.00;;;;2087172;28;20728;-55
2022/08/06 05:00:25;;;;;;;1.63;0.90;;;;;26.00;101561.00;;;;2087359;28;20208;-54
2022/08/06 05:01:25;;;;;;;0.90;0.50;;;;;26.00;101569.00;;;;2087245;28;20236;-53
2022/08/06 05:02:26;;;;;;;1.20;0.60;;;;;26.00;101563.00;;;;2078574;28;20944;-54
2022/08/06 05:03:27;;;;;;;1.97;0.80;;;;;26.00;101565.00;;;;2079153;28;20267;-53
2022/08/06 05:04:29;;;;;;;1.27;0.70;;;;;26.00;101559.00;;;;2076978;28;20308;-53
2022/08/06 05:05:31;;;;;;;0.90;0.70;;;;;26.00;101565.00;;;;2082619;28;20498;-53
2022/08/06 05:06:44;;;;;;;0.83;0.67;;;;;26.00;101572.00;;;;2081718;28;20456;-53
2022/08/06 05:07:44;;;;;;;1.10;0.60;;;;;26.00;101567.00;;;;2070358;28;20465;-53
2022/08/06 05:08:46;;;;;;;2.90;0.90;;;;;26.00;101560.00;;;;2078832;28;20460;-53